C688X KASE-KPVU
Flight info
| Callsign | C688X |
|---|---|
| Flight time | 0h 41m |
| Altitude | 40000 |
| Route | LINDZ1 LINDZ JNC PUC |
| Aircraft | C750/M-SBDE3FGHRWXY/S |
Departure
| Time | 2026-04-25 21:11 |
|---|---|
| Airport | Aspen-Pitkin County Airport (Sardy Field) (KASE) |
Arrival
| Time | 2026-04-25 21:52 |
|---|---|
| Airport | Provo Municipal Airport (KPVU) |
| Time | Latitude | Longitude | Altitude | Speed | Heading |
|---|---|---|---|---|---|
| 2026-04-25 20:36 | 39.22236 | -106.86688 | 7756 ft | 0 kts | 69° |
| 2026-04-25 21:02 | 39.22235 | -106.86691 | 7766 ft | 3 kts | 70° |
| 2026-04-25 21:02 | 39.22233 | -106.86718 | 7753 ft | 4 kts | 130° |
| 2026-04-25 21:03 | 39.22248 | -106.86733 | 7751 ft | 1 kts | 159° |
| 2026-04-25 21:03 | 39.22251 | -106.86734 | 7761 ft | 0 kts | 159° |
| 2026-04-25 21:05 | 39.22247 | -106.86732 | 7751 ft | 2 kts | 159° |
| 2026-04-25 21:06 | 39.22216 | -106.86717 | 7758 ft | 6 kts | 160° |
| 2026-04-25 21:06 | 39.22205 | -106.86712 | 7759 ft | 0 kts | 160° |
| 2026-04-25 21:06 | 39.22203 | -106.86711 | 7759 ft | 1 kts | 160° |
| 2026-04-25 21:06 | 39.22197 | -106.86708 | 7760 ft | 2 kts | 160° |
| 2026-04-25 21:07 | 39.22145 | -106.86683 | 7764 ft | 10 kts | 160° |
| 2026-04-25 21:07 | 39.22061 | -106.86643 | 7768 ft | 15 kts | 160° |
| 2026-04-25 21:07 | 39.21958 | -106.86594 | 7780 ft | 16 kts | 160° |
| 2026-04-25 21:07 | 39.21847 | -106.86541 | 7787 ft | 18 kts | 159° |
| 2026-04-25 21:08 | 39.21723 | -106.86482 | 7802 ft | 19 kts | 160° |
| 2026-04-25 21:08 | 39.21608 | -106.86427 | 7812 ft | 17 kts | 159° |
| 2026-04-25 21:08 | 39.21501 | -106.86376 | 7818 ft | 15 kts | 160° |
| 2026-04-25 21:08 | 39.21409 | -106.86331 | 7826 ft | 13 kts | 159° |
| 2026-04-25 21:09 | 39.21271 | -106.86264 | 7835 ft | 9 kts | 161° |
| 2026-04-25 21:09 | 39.21208 | -106.86254 | 7838 ft | 9 kts | 199° |
| 2026-04-25 21:09 | 39.21177 | -106.86326 | 7835 ft | 11 kts | 277° |
| 2026-04-25 21:10 | 39.21273 | -106.86387 | 7830 ft | 28 kts | 339° |
| 2026-04-25 21:10 | 39.21771 | -106.86622 | 7798 ft | 130 kts | 341° |
| 2026-04-25 21:10 | 39.22826 | -106.87128 | 7832 ft | 179 kts | 340° |
| 2026-04-25 21:10 | 39.24024 | -106.87682 | 8400 ft | 183 kts | 335° |
| 2026-04-25 21:11 | 39.25218 | -106.88286 | 8944 ft | 188 kts | 335° |
| 2026-04-25 21:11 | 39.26481 | -106.88808 | 9577 ft | 190 kts | 336° |
| 2026-04-25 21:11 | 39.27678 | -106.89552 | 10090 ft | 194 kts | 318° |
| 2026-04-25 21:11 | 39.28707 | -106.90625 | 10892 ft | 185 kts | 316° |
| 2026-04-25 21:12 | 39.29691 | -106.91650 | 11669 ft | 183 kts | 311° |
| 2026-04-25 21:12 | 39.30695 | -106.92776 | 12182 ft | 204 kts | 313° |
| 2026-04-25 21:12 | 39.31834 | -106.93962 | 12942 ft | 214 kts | 317° |
| 2026-04-25 21:12 | 39.32607 | -106.94785 | 13462 ft | 214 kts | 306° |
| 2026-04-25 21:13 | 39.33342 | -106.97310 | 13339 ft | 251 kts | 275° |
| 2026-04-25 21:13 | 39.33689 | -106.99686 | 13318 ft | 287 kts | 282° |
| 2026-04-25 21:13 | 39.34391 | -107.02254 | 13148 ft | 320 kts | 289° |
| 2026-04-25 21:13 | 39.35357 | -107.04964 | 13054 ft | 343 kts | 292° |
| 2026-04-25 21:14 | 39.36386 | -107.07795 | 13137 ft | 350 kts | 291° |
| 2026-04-25 21:14 | 39.37306 | -107.10712 | 13188 ft | 350 kts | 288° |
| 2026-04-25 21:14 | 39.38134 | -107.13631 | 13267 ft | 350 kts | 285° |
| 2026-04-25 21:14 | 39.38461 | -107.16730 | 13242 ft | 348 kts | 268° |
| 2026-04-25 21:15 | 39.38109 | -107.19811 | 13267 ft | 346 kts | 255° |
| 2026-04-25 21:15 | 39.37512 | -107.22827 | 13347 ft | 347 kts | 254° |
| 2026-04-25 21:15 | 39.36920 | -107.25850 | 13416 ft | 348 kts | 255° |
| 2026-04-25 21:15 | 39.36340 | -107.28864 | 13474 ft | 347 kts | 255° |
| 2026-04-25 21:16 | 39.35754 | -107.31885 | 13486 ft | 345 kts | 254° |
| 2026-04-25 21:16 | 39.35161 | -107.34910 | 13520 ft | 348 kts | 255° |
| 2026-04-25 21:16 | 39.34574 | -107.37898 | 13552 ft | 348 kts | 255° |
| 2026-04-25 21:16 | 39.33982 | -107.40928 | 13642 ft | 349 kts | 254° |
| 2026-04-25 21:17 | 39.33388 | -107.43971 | 14349 ft | 348 kts | 254° |
| 2026-04-25 21:17 | 39.32791 | -107.47010 | 15099 ft | 350 kts | 254° |
| 2026-04-25 21:17 | 39.32187 | -107.50071 | 15751 ft | 354 kts | 254° |
| 2026-04-25 21:17 | 39.31581 | -107.53151 | 16484 ft | 354 kts | 254° |
| 2026-04-25 21:18 | 39.30973 | -107.56239 | 17213 ft | 356 kts | 254° |
| 2026-04-25 21:18 | 39.30358 | -107.59351 | 17918 ft | 358 kts | 254° |
| 2026-04-25 21:18 | 39.29744 | -107.62455 | 18578 ft | 357 kts | 254° |
| 2026-04-25 21:18 | 39.29138 | -107.65513 | 19207 ft | 356 kts | 255° |
| 2026-04-25 21:19 | 39.28524 | -107.68609 | 19874 ft | 356 kts | 255° |
| 2026-04-25 21:19 | 39.27909 | -107.71703 | 20555 ft | 356 kts | 255° |
| 2026-04-25 21:19 | 39.27294 | -107.74796 | 21248 ft | 355 kts | 255° |
| 2026-04-25 21:19 | 39.26680 | -107.77874 | 21965 ft | 354 kts | 255° |
| 2026-04-25 21:20 | 39.26067 | -107.80942 | 22679 ft | 352 kts | 256° |
| 2026-04-25 21:20 | 39.25662 | -107.82970 | 23149 ft | 351 kts | 256° |
| 2026-04-25 21:20 | 39.24847 | -107.87039 | 23994 ft | 349 kts | 256° |
| 2026-04-25 21:20 | 39.24241 | -107.90064 | 24606 ft | 348 kts | 256° |
| 2026-04-25 21:21 | 39.23644 | -107.93037 | 25230 ft | 346 kts | 256° |
| 2026-04-25 21:21 | 39.23041 | -107.96035 | 25877 ft | 345 kts | 256° |
| 2026-04-25 21:21 | 39.22440 | -107.99019 | 26508 ft | 343 kts | 256° |
| 2026-04-25 21:21 | 39.21841 | -108.01990 | 27152 ft | 342 kts | 256° |
| 2026-04-25 21:22 | 39.21243 | -108.04951 | 27771 ft | 341 kts | 256° |
| 2026-04-25 21:22 | 39.20646 | -108.07901 | 28407 ft | 340 kts | 255° |
| 2026-04-25 21:22 | 39.20050 | -108.10846 | 29090 ft | 339 kts | 255° |
| 2026-04-25 21:22 | 39.19455 | -108.13775 | 29764 ft | 337 kts | 255° |
| 2026-04-25 21:23 | 39.18870 | -108.16655 | 30327 ft | 336 kts | 255° |
| 2026-04-25 21:23 | 39.18279 | -108.19563 | 30890 ft | 335 kts | 255° |
| 2026-04-25 21:23 | 39.17688 | -108.22463 | 31479 ft | 334 kts | 255° |
| 2026-04-25 21:23 | 39.17100 | -108.25351 | 32052 ft | 332 kts | 255° |
| 2026-04-25 21:24 | 39.16513 | -108.28226 | 32618 ft | 331 kts | 255° |
| 2026-04-25 21:24 | 39.15926 | -108.31089 | 33225 ft | 330 kts | 255° |
| 2026-04-25 21:24 | 39.15342 | -108.33942 | 33785 ft | 329 kts | 254° |
| 2026-04-25 21:24 | 39.14760 | -108.36790 | 34249 ft | 328 kts | 254° |
| 2026-04-25 21:25 | 39.14177 | -108.39630 | 34737 ft | 328 kts | 255° |
| 2026-04-25 21:25 | 39.13600 | -108.42424 | 35225 ft | 327 kts | 255° |
| 2026-04-25 21:25 | 39.13016 | -108.45256 | 35732 ft | 327 kts | 255° |
| 2026-04-25 21:25 | 39.12433 | -108.48091 | 36216 ft | 327 kts | 255° |
| 2026-04-25 21:26 | 39.11848 | -108.50924 | 36692 ft | 327 kts | 255° |
| 2026-04-25 21:26 | 39.11263 | -108.53754 | 37164 ft | 328 kts | 256° |
| 2026-04-25 21:26 | 39.10676 | -108.56593 | 37642 ft | 328 kts | 256° |
| 2026-04-25 21:26 | 39.10086 | -108.59437 | 38124 ft | 330 kts | 256° |
| 2026-04-25 21:27 | 39.09491 | -108.62305 | 38583 ft | 333 kts | 256° |
| 2026-04-25 21:27 | 39.08897 | -108.65163 | 38953 ft | 336 kts | 256° |
| 2026-04-25 21:27 | 39.08292 | -108.68071 | 39321 ft | 339 kts | 256° |
| 2026-04-25 21:27 | 39.07702 | -108.71019 | 39682 ft | 341 kts | 258° |
| 2026-04-25 21:28 | 39.07359 | -108.74079 | 39765 ft | 354 kts | 265° |
| 2026-04-25 21:28 | 39.07335 | -108.77302 | 39679 ft | 368 kts | 271° |
| 2026-04-25 21:28 | 39.07661 | -108.80631 | 39690 ft | 383 kts | 277° |
| 2026-04-25 21:28 | 39.08377 | -108.83999 | 39690 ft | 399 kts | 285° |
| 2026-04-25 21:29 | 39.09517 | -108.87332 | 39686 ft | 416 kts | 292° |
| 2026-04-25 21:29 | 39.10965 | -108.90605 | 39696 ft | 427 kts | 294° |
| 2026-04-25 21:29 | 39.13929 | -108.97366 | 39689 ft | 446 kts | 294° |
| 2026-04-25 21:30 | 39.17029 | -109.04419 | 39684 ft | 454 kts | 294° |
| 2026-04-25 21:30 | 39.19611 | -109.10307 | 39677 ft | 454 kts | 294° |
| 2026-04-25 21:31 | 39.23237 | -109.18620 | 39668 ft | 456 kts | 294° |
| 2026-04-25 21:31 | 39.26354 | -109.25767 | 39674 ft | 458 kts | 294° |
| 2026-04-25 21:32 | 39.29446 | -109.32884 | 39695 ft | 459 kts | 294° |
| 2026-04-25 21:32 | 39.32562 | -109.40064 | 39702 ft | 458 kts | 294° |
| 2026-04-25 21:33 | 39.35673 | -109.47251 | 39694 ft | 458 kts | 294° |
| 2026-04-25 21:33 | 39.38777 | -109.54446 | 39713 ft | 458 kts | 294° |
| 2026-04-25 21:34 | 39.41859 | -109.61596 | 39720 ft | 459 kts | 294° |
| 2026-04-25 21:34 | 39.44962 | -109.68820 | 39712 ft | 461 kts | 294° |
| 2026-04-25 21:35 | 39.48075 | -109.76077 | 39706 ft | 462 kts | 294° |
| 2026-04-25 21:35 | 39.51161 | -109.83282 | 39248 ft | 447 kts | 294° |
| 2026-04-25 21:36 | 39.52638 | -109.86727 | 38682 ft | 430 kts | 293° |
| 2026-04-25 21:36 | 39.54042 | -109.90022 | 38064 ft | 416 kts | 293° |
| 2026-04-25 21:36 | 39.55409 | -109.93238 | 37530 ft | 400 kts | 292° |
| 2026-04-25 21:36 | 39.56733 | -109.96354 | 37011 ft | 392 kts | 292° |
| 2026-04-25 21:37 | 39.58044 | -109.99445 | 36512 ft | 392 kts | 292° |
| 2026-04-25 21:37 | 39.58916 | -110.01506 | 36214 ft | 397 kts | 292° |
| 2026-04-25 21:37 | 39.60717 | -110.05753 | 35451 ft | 406 kts | 292° |
| 2026-04-25 21:37 | 39.62083 | -110.08963 | 34926 ft | 407 kts | 292° |
| 2026-04-25 21:38 | 39.63450 | -110.12186 | 34403 ft | 408 kts | 291° |
| 2026-04-25 21:38 | 39.64816 | -110.15418 | 33852 ft | 409 kts | 291° |
| 2026-04-25 21:38 | 39.66168 | -110.18617 | 33283 ft | 410 kts | 291° |
| 2026-04-25 21:38 | 39.67538 | -110.21866 | 32749 ft | 411 kts | 292° |
| 2026-04-25 21:39 | 39.68911 | -110.25123 | 32172 ft | 413 kts | 292° |
| 2026-04-25 21:39 | 39.70292 | -110.28400 | 31629 ft | 415 kts | 292° |
| 2026-04-25 21:39 | 39.71679 | -110.31694 | 31097 ft | 416 kts | 292° |
| 2026-04-25 21:39 | 39.73066 | -110.34994 | 30598 ft | 417 kts | 292° |
| 2026-04-25 21:40 | 39.74458 | -110.38311 | 30134 ft | 419 kts | 292° |
| 2026-04-25 21:40 | 39.75849 | -110.41615 | 29651 ft | 415 kts | 292° |
| 2026-04-25 21:40 | 39.77214 | -110.44853 | 29083 ft | 413 kts | 293° |
| 2026-04-25 21:40 | 39.78572 | -110.48127 | 28537 ft | 410 kts | 292° |
| 2026-04-25 21:41 | 39.79921 | -110.51373 | 27997 ft | 408 kts | 293° |
| 2026-04-25 21:41 | 39.81275 | -110.54603 | 27464 ft | 406 kts | 293° |
| 2026-04-25 21:41 | 39.82624 | -110.57820 | 26966 ft | 405 kts | 293° |
| 2026-04-25 21:41 | 39.83964 | -110.61038 | 26502 ft | 403 kts | 293° |
| 2026-04-25 21:42 | 39.85295 | -110.64238 | 26095 ft | 401 kts | 294° |
| 2026-04-25 21:42 | 39.86621 | -110.67429 | 25630 ft | 400 kts | 294° |
| 2026-04-25 21:42 | 39.87925 | -110.70569 | 25177 ft | 400 kts | 294° |
| 2026-04-25 21:42 | 39.89249 | -110.73752 | 24746 ft | 398 kts | 294° |
| 2026-04-25 21:43 | 39.90564 | -110.76922 | 24334 ft | 398 kts | 294° |
| 2026-04-25 21:43 | 39.91875 | -110.80090 | 23923 ft | 397 kts | 294° |
| 2026-04-25 21:43 | 39.93185 | -110.83261 | 23490 ft | 397 kts | 294° |
| 2026-04-25 21:43 | 39.94494 | -110.86426 | 23023 ft | 396 kts | 294° |
| 2026-04-25 21:44 | 39.95796 | -110.89574 | 22533 ft | 395 kts | 294° |
| 2026-04-25 21:44 | 39.97095 | -110.92726 | 22067 ft | 392 kts | 294° |
| 2026-04-25 21:44 | 39.99647 | -110.98923 | 21156 ft | 389 kts | 295° |
| 2026-04-25 21:45 | 40.00925 | -111.02027 | 20750 ft | 388 kts | 295° |
| 2026-04-25 21:45 | 40.01786 | -111.04125 | 20464 ft | 387 kts | 295° |
| 2026-04-25 21:45 | 40.03462 | -111.08209 | 19918 ft | 384 kts | 295° |
| 2026-04-25 21:45 | 40.04725 | -111.11284 | 19514 ft | 383 kts | 294° |
| 2026-04-25 21:46 | 40.05979 | -111.14351 | 19130 ft | 382 kts | 294° |
| 2026-04-25 21:46 | 40.07076 | -111.17474 | 18677 ft | 378 kts | 284° |
| 2026-04-25 21:46 | 40.07595 | -111.20806 | 18264 ft | 372 kts | 275° |
| 2026-04-25 21:46 | 40.07899 | -111.24140 | 17862 ft | 369 kts | 274° |
| 2026-04-25 21:47 | 40.08261 | -111.27411 | 17436 ft | 369 kts | 277° |
| 2026-04-25 21:47 | 40.08820 | -111.30676 | 17011 ft | 368 kts | 281° |
| 2026-04-25 21:47 | 40.09405 | -111.33919 | 16616 ft | 365 kts | 279° |
| 2026-04-25 21:47 | 40.09888 | -111.37165 | 16210 ft | 364 kts | 277° |
| 2026-04-25 21:48 | 40.10340 | -111.40399 | 15833 ft | 361 kts | 278° |
| 2026-04-25 21:48 | 40.10830 | -111.43575 | 15160 ft | 351 kts | 278° |
| 2026-04-25 21:48 | 40.11303 | -111.46477 | 13091 ft | 299 kts | 279° |
| 2026-04-25 21:48 | 40.11730 | -111.49327 | 10598 ft | 342 kts | 279° |
| 2026-04-25 21:49 | 40.12175 | -111.52360 | 9647 ft | 331 kts | 279° |
| 2026-04-25 21:49 | 40.12590 | -111.55012 | 8816 ft | 269 kts | 281° |
| 2026-04-25 21:49 | 40.12946 | -111.57298 | 7744 ft | 244 kts | 280° |
| 2026-04-25 21:49 | 40.13268 | -111.59461 | 7612 ft | 248 kts | 281° |
| 2026-04-25 21:50 | 40.13619 | -111.61787 | 7002 ft | 264 kts | 281° |
| 2026-04-25 21:50 | 40.13974 | -111.63980 | 6417 ft | 227 kts | 283° |
| 2026-04-25 21:50 | 40.14664 | -111.65772 | 6062 ft | 222 kts | 305° |
| 2026-04-25 21:50 | 40.15375 | -111.66744 | 6002 ft | 219 kts | 316° |
| 2026-04-25 21:51 | 40.16990 | -111.68032 | 5431 ft | 183 kts | 333° |
| 2026-04-25 21:51 | 40.18068 | -111.68755 | 5033 ft | 167 kts | 327° |
| 2026-04-25 21:51 | 40.18962 | -111.69601 | 4867 ft | 151 kts | 321° |
| 2026-04-25 21:51 | 40.19829 | -111.70383 | 4745 ft | 154 kts | 322° |
| 2026-04-25 21:52 | 40.20695 | -111.71184 | 4596 ft | 149 kts | 324° |
| 2026-04-25 21:52 | 40.21514 | -111.71914 | 4501 ft | 134 kts | 323° |
| 2026-04-25 21:52 | 40.22131 | -111.72457 | 4502 ft | 70 kts | 326° |
| 2026-04-25 21:52 | 40.22350 | -111.72650 | 4502 ft | 32 kts | 326° |
| 2026-04-25 21:53 | 40.22476 | -111.72761 | 4500 ft | 20 kts | 326° |
| 2026-04-25 21:53 | 40.22588 | -111.72861 | 4500 ft | 19 kts | 326° |
| 2026-04-25 21:53 | 40.22675 | -111.72901 | 4499 ft | 8 kts | 50° |
| 2026-04-25 21:53 | 40.22680 | -111.72839 | 4499 ft | 8 kts | 93° |
| 2026-04-25 21:54 | 40.22672 | -111.72712 | 4499 ft | 13 kts | 94° |
| 2026-04-25 21:54 | 40.22621 | -111.72630 | 4500 ft | 11 kts | 145° |
| 2026-04-25 21:54 | 40.22559 | -111.72574 | 4502 ft | 10 kts | 146° |
| 2026-04-25 21:54 | 40.22503 | -111.72524 | 4502 ft | 9 kts | 146° |
| 2026-04-25 21:55 | 40.22453 | -111.72481 | 4501 ft | 8 kts | 147° |
| 2026-04-25 21:55 | 40.22398 | -111.72432 | 4499 ft | 18 kts | 145° |
| 2026-04-25 21:55 | 40.22262 | -111.72312 | 4499 ft | 24 kts | 146° |
| 2026-04-25 21:55 | 40.22130 | -111.72195 | 4499 ft | 23 kts | 148° |
| 2026-04-25 21:56 | 40.22000 | -111.72105 | 4499 ft | 16 kts | 152° |
| 2026-04-25 21:56 | 40.21960 | -111.72069 | 4502 ft | 8 kts | 114° |
| 2026-04-25 21:56 | 40.21995 | -111.72034 | 4498 ft | 4 kts | 10° |
| 2026-04-25 21:56 | 40.22024 | -111.72020 | 4499 ft | 4 kts | 56° |
| 2026-04-25 21:57 | 40.22019 | -111.71968 | 4498 ft | 8 kts | 102° |
| 2026-04-25 21:57 | 40.22017 | -111.71955 | 4498 ft | 0 kts | 102° |